createdAt,value
2023-03-28T00:02:04.982Z,100532.16
2023-03-28T00:04:31.459Z,100517.50
2023-03-28T00:06:57.787Z,100532.38
2023-03-28T00:09:25.657Z,100518.47
2023-03-28T00:11:51.968Z,100518.97
2023-03-28T00:14:18.298Z,100518.94
2023-03-28T00:16:45.557Z,100516.59
2023-03-28T00:19:15.639Z,100525.88
2023-03-28T00:21:46.847Z,100533.66
2023-03-28T00:24:14.686Z,100538.28
2023-03-28T00:26:43.167Z,100537.44
2023-03-28T00:29:15.568Z,100533.28
2023-03-28T00:31:42.437Z,100537.03
2023-03-28T00:34:08.810Z,100549.59
2023-03-28T00:36:35.116Z,100552.16
2023-03-28T00:39:06.273Z,100554.00
2023-03-28T00:41:35.370Z,100545.94
2023-03-28T00:44:22.092Z,100552.97
2023-03-28T00:46:48.447Z,100553.22
2023-03-28T00:49:24.224Z,100545.16
2023-03-28T00:51:57.356Z,100549.41
2023-03-28T00:54:27.960Z,100546.84
2023-03-28T00:56:57.425Z,100550.47
2023-03-28T00:59:28.836Z,100552.44
2023-03-28T01:01:55.870Z,100549.00
2023-03-28T01:04:27.132Z,100538.56
2023-03-28T01:06:58.757Z,100537.59
2023-03-28T01:09:26.751Z,100537.38
2023-03-28T01:11:56.086Z,100529.22
2023-03-28T01:14:26.280Z,100537.47
2023-03-28T01:16:56.398Z,100535.47
2023-03-28T01:19:38.461Z,100534.97
2023-03-28T01:22:32.639Z,100539.44
2023-03-28T01:25:11.179Z,100534.50
2023-03-28T01:28:01.963Z,100542.03
2023-03-28T01:31:14.036Z,100548.19
2023-03-28T01:33:56.462Z,100551.06
2023-03-28T01:36:41.674Z,100543.84
2023-03-28T01:39:48.894Z,100556.28
2023-03-28T01:42:31.970Z,100540.53
2023-03-28T01:45:14.959Z,100547.56
2023-03-28T01:48:03.558Z,100546.31
2023-03-28T01:50:35.641Z,100549.66
2023-03-28T01:53:11.389Z,100557.06
2023-03-28T01:55:48.550Z,100552.88
2023-03-28T01:58:39.595Z,100563.63
2023-03-28T02:01:17.402Z,100556.41
2023-03-28T02:03:51.880Z,100562.31
2023-03-28T02:06:34.983Z,100552.50
2023-03-28T02:09:04.197Z,100555.22
2023-03-28T02:11:53.234Z,100552.75
2023-03-28T02:14:37.091Z,100553.94
2023-03-28T02:17:23.787Z,100547.31
2023-03-28T02:20:24.647Z,100543.16
2023-03-28T02:23:13.527Z,100548.59
2023-03-28T02:25:49.714Z,100545.06
2023-03-28T02:28:36.908Z,100536.69
2023-03-28T02:31:15.452Z,100544.69
2023-03-28T02:33:44.506Z,100544.97
2023-03-28T02:36:35.145Z,100550.34
2023-03-28T02:39:40.235Z,100531.41
2023-03-28T02:42:38.069Z,100546.94
2023-03-28T02:45:26.409Z,100548.22
2023-03-28T02:48:30.333Z,100546.38
2023-03-28T02:51:11.859Z,100542.03
2023-03-28T02:53:49.628Z,100537.34
2023-03-28T02:56:27.873Z,100544.91
2023-03-28T02:59:18.200Z,100550.75
2023-03-28T03:01:45.342Z,100542.09
2023-03-28T03:04:13.408Z,100533.31
2023-03-28T03:06:39.837Z,100546.94
2023-03-28T03:09:06.183Z,100542.03
2023-03-28T03:11:32.569Z,100540.91
2023-03-28T03:14:00.266Z,100545.13
2023-03-28T03:16:29.132Z,100550.53
2023-03-28T03:18:57.206Z,100543.59
2023-03-28T03:21:25.205Z,100551.63
2023-03-28T03:23:52.061Z,100544.09
2023-03-28T03:26:18.798Z,100556.41
2023-03-28T03:28:53.936Z,100549.88
2023-03-28T03:31:21.390Z,100557.88
2023-03-28T03:34:07.481Z,100554.69
2023-03-28T03:36:40.511Z,100560.16
2023-03-28T03:39:07.513Z,100554.56
2023-03-28T03:41:34.029Z,100560.34
2023-03-28T03:44:00.725Z,100554.47
2023-03-28T03:46:29.449Z,100565.28
2023-03-28T03:48:55.989Z,100569.63
2023-03-28T03:51:22.368Z,100568.19
2023-03-28T03:53:52.244Z,100578.53
2023-03-28T03:56:22.621Z,100571.78
2023-03-28T03:58:53.800Z,100572.44
2023-03-28T04:01:25.681Z,100574.72
2023-03-28T04:03:53.281Z,100563.56
2023-03-28T04:06:24.902Z,100573.41
2023-03-28T04:08:51.445Z,100576.66
2023-03-28T04:11:29.602Z,100581.44
2023-03-28T04:13:56.036Z,100578.16
2023-03-28T04:16:23.803Z,100585.53
2023-03-28T04:18:57.724Z,100582.59
2023-03-28T04:21:28.113Z,100585.28
2023-03-28T04:23:55.802Z,100578.28
2023-03-28T04:26:40.786Z,100590.31
2023-03-28T04:29:10.439Z,100578.75
2023-03-28T04:31:39.802Z,100578.03
2023-03-28T04:34:31.305Z,100580.13
2023-03-28T04:37:18.920Z,100594.31
2023-03-28T04:39:53.947Z,100591.25
2023-03-28T04:42:44.167Z,100589.91
2023-03-28T04:45:15.048Z,100592.59
2023-03-28T04:47:42.996Z,100593.06
2023-03-28T04:50:16.487Z,100597.28
2023-03-28T04:52:42.866Z,100599.38
2023-03-28T04:55:10.247Z,100599.59
2023-03-28T04:57:38.122Z,100601.53
2023-03-28T05:00:09.863Z,100614.66
2023-03-28T05:03:04.876Z,100615.84
2023-03-28T05:05:37.059Z,100614.66
2023-03-28T05:08:08.291Z,100613.03
2023-03-28T05:10:34.664Z,100614.81
2023-03-28T05:13:05.712Z,100621.44
2023-03-28T05:15:39.276Z,100621.63
2023-03-28T05:18:21.283Z,100632.13
2023-03-28T05:20:47.689Z,100628.06
2023-03-28T05:23:14.110Z,100627.16
2023-03-28T05:25:42.851Z,100627.75
2023-03-28T05:28:09.680Z,100633.03
2023-03-28T05:30:45.899Z,100639.25
2023-03-28T05:33:12.293Z,100641.41
2023-03-28T05:35:39.098Z,100651.31
2023-03-28T05:38:05.597Z,100642.88
2023-03-28T05:40:32.410Z,100646.25
2023-03-28T05:42:59.605Z,100662.06
2023-03-28T05:45:26.369Z,100657.81
2023-03-28T05:47:57.238Z,100654.06
2023-03-28T05:50:26.159Z,100659.50
2023-03-28T05:52:57.952Z,100648.91
2023-03-28T05:55:24.353Z,100661.91
2023-03-28T05:57:50.697Z,100663.16
2023-03-28T06:00:20.559Z,100661.22
2023-03-28T06:02:51.751Z,100655.53
2023-03-28T06:05:21.512Z,100659.50
2023-03-28T06:07:48.038Z,100661.81
2023-03-28T06:10:17.383Z,100656.78
2023-03-28T06:12:56.084Z,100671.53
2023-03-28T06:15:22.982Z,100653.91
2023-03-28T06:17:50.352Z,100673.25
2023-03-28T06:20:17.091Z,100672.28
2023-03-28T06:22:43.523Z,100672.03
2023-03-28T06:25:10.882Z,100669.34
2023-03-28T06:27:37.298Z,100666.75
2023-03-28T06:30:04.624Z,100668.72
2023-03-28T06:32:36.597Z,100674.66
2023-03-28T06:35:03.449Z,100672.53
2023-03-28T06:37:29.790Z,100674.66
2023-03-28T06:40:06.146Z,100683.16
2023-03-28T06:42:32.495Z,100676.84
2023-03-28T06:45:14.757Z,100666.06
2023-03-28T06:47:46.015Z,100669.78
2023-03-28T06:50:12.735Z,100672.53
2023-03-28T06:52:55.928Z,100674.63
2023-03-28T06:55:22.680Z,100674.41
2023-03-28T06:57:49.067Z,100662.00
2023-03-28T07:00:29.501Z,100686.22
2023-03-28T07:03:31.118Z,100673.88
2023-03-28T07:05:58.381Z,100684.00
2023-03-28T07:08:25.370Z,100680.28
2023-03-28T07:10:52.287Z,100682.88
2023-03-28T07:13:18.682Z,100690.06
2023-03-28T07:16:05.618Z,100699.13
2023-03-28T07:18:32.815Z,100690.88
2023-03-28T07:21:03.966Z,100690.13
2023-03-28T07:23:31.155Z,100695.28
2023-03-28T07:25:57.476Z,100694.75
2023-03-28T07:28:24.179Z,100698.84
2023-03-28T07:30:54.079Z,100703.97
2023-03-28T07:33:28.272Z,100711.66
2023-03-28T07:36:07.751Z,100711.50
2023-03-28T07:38:35.538Z,100709.41
2023-03-28T07:41:02.421Z,100711.50
2023-03-28T07:43:29.001Z,100713.56
2023-03-28T07:46:06.562Z,100715.19
2023-03-28T07:48:34.122Z,100731.28
2023-03-28T07:51:02.541Z,100722.41
2023-03-28T07:53:28.973Z,100725.28
2023-03-28T07:55:56.351Z,100723.34
2023-03-28T07:58:30.409Z,100725.22
2023-03-28T08:01:08.623Z,100724.25
2023-03-28T08:03:45.856Z,100727.91
2023-03-28T08:06:28.547Z,100728.09
2023-03-28T08:08:58.327Z,100730.41
2023-03-28T08:11:35.461Z,100732.16
2023-03-28T08:14:03.270Z,100728.31
2023-03-28T08:16:30.592Z,100721.38
2023-03-28T08:19:09.977Z,100741.13
2023-03-28T08:21:48.238Z,100733.78
2023-03-28T08:24:22.267Z,100741.19
2023-03-28T08:27:01.533Z,100739.88
2023-03-28T08:29:28.348Z,100740.41
2023-03-28T08:31:54.669Z,100733.03
2023-03-28T08:34:20.973Z,100729.81
2023-03-28T08:36:48.801Z,100733.75
2023-03-28T08:39:25.730Z,100724.56
2023-03-28T08:42:15.403Z,100720.88
2023-03-28T08:45:08.685Z,100719.75
2023-03-28T08:47:53.760Z,100726.31
2023-03-28T08:50:29.205Z,100727.69
2023-03-28T08:52:55.733Z,100730.50
2023-03-28T08:55:31.116Z,100728.34
2023-03-28T08:57:58.828Z,100725.66
2023-03-28T09:00:32.822Z,100730.53
2023-03-28T09:03:00.438Z,100732.47
2023-03-28T09:05:46.229Z,100729.38
2023-03-28T09:08:19.825Z,100726.94
2023-03-28T09:11:26.212Z,100731.09
2023-03-28T09:14:06.651Z,100730.97
2023-03-28T09:16:55.271Z,100731.28
2023-03-28T09:19:48.976Z,100721.34
2023-03-28T09:22:54.405Z,100726.25
2023-03-28T09:25:32.707Z,100732.06
2023-03-28T09:28:20.731Z,100724.59
2023-03-28T09:30:50.170Z,100713.22
2023-03-28T09:33:39.018Z,100709.28
2023-03-28T09:36:22.553Z,100716.75
2023-03-28T09:38:56.732Z,100706.50
2023-03-28T09:41:31.246Z,100707.75
2023-03-28T09:44:21.391Z,100716.19
2023-03-28T09:47:14.757Z,100704.06
2023-03-28T09:49:46.452Z,100710.31
2023-03-28T09:52:18.511Z,100708.78
2023-03-28T09:54:46.781Z,100704.03
2023-03-28T09:57:13.276Z,100698.78
2023-03-28T10:00:07.916Z,100697.59
2023-03-28T10:02:54.673Z,100687.78
2023-03-28T10:05:38.476Z,100700.34
2023-03-28T10:08:23.214Z,100692.47
2023-03-28T10:11:14.107Z,100688.41
2023-03-28T10:13:45.494Z,100684.94
2023-03-28T10:16:15.333Z,100683.50
2023-03-28T10:19:13.963Z,100680.09
2023-03-28T10:21:50.084Z,100685.59
2023-03-28T10:24:22.264Z,100689.00
2023-03-28T10:27:17.995Z,100686.53
2023-03-28T10:29:46.609Z,100682.31
2023-03-28T10:32:25.884Z,100676.16
2023-03-28T10:35:27.920Z,100670.56
2023-03-28T10:38:20.881Z,100675.94
2023-03-28T10:41:21.469Z,100662.59
2023-03-28T10:44:18.867Z,100660.72
2023-03-28T10:46:55.039Z,100652.94
2023-03-28T10:49:40.947Z,100660.78
2023-03-28T10:52:40.572Z,100656.44
2023-03-28T10:55:23.281Z,100649.47
2023-03-28T10:58:12.824Z,100650.72
2023-03-28T11:01:01.147Z,100640.63
2023-03-28T11:04:04.663Z,100637.03
2023-03-28T11:06:54.676Z,100635.97
2023-03-28T11:10:01.207Z,100628.13
2023-03-28T11:13:12.025Z,100633.50
2023-03-28T11:16:01.921Z,100630.22
2023-03-28T11:19:20.210Z,100622.91
2023-03-28T11:22:13.167Z,100628.09
2023-03-28T11:25:06.304Z,100626.66
2023-03-28T11:28:15.476Z,100620.50
2023-03-28T11:30:49.692Z,100599.91
2023-03-28T11:33:46.789Z,100593.56
2023-03-28T11:36:29.294Z,100596.19
2023-03-28T11:39:05.741Z,100591.00
2023-03-28T11:41:36.221Z,100598.41
2023-03-28T11:44:21.275Z,100588.59
2023-03-28T11:47:02.907Z,100580.47
2023-03-28T11:49:50.536Z,100570.22
2023-03-28T11:52:40.688Z,100580.59
2023-03-28T11:55:15.269Z,100575.72
2023-03-28T11:57:59.273Z,100565.22
2023-03-28T12:00:34.747Z,100568.97
2023-03-28T12:03:13.296Z,100565.53
2023-03-28T12:06:00.064Z,100560.13
2023-03-28T12:08:35.310Z,100550.75
2023-03-28T12:11:06.140Z,100548.81
2023-03-28T12:14:11.439Z,100554.97
2023-03-28T12:16:47.313Z,100539.91
2023-03-28T12:19:30.383Z,100529.34
2023-03-28T12:22:21.243Z,100531.59
2023-03-28T12:24:55.821Z,100520.88
2023-03-28T12:27:53.249Z,100509.50
2023-03-28T12:30:42.878Z,100510.28
2023-03-28T12:33:38.855Z,100509.44
2023-03-28T12:36:28.354Z,100509.13
2023-03-28T12:39:08.667Z,100503.59
2023-03-28T12:41:39.693Z,100492.38
2023-03-28T12:44:17.237Z,100492.38
2023-03-28T12:46:55.302Z,100479.66
2023-03-28T12:49:40.514Z,100491.44
2023-03-28T12:52:18.445Z,100480.56
2023-03-28T12:55:04.699Z,100484.44
2023-03-28T12:57:40.332Z,100470.81
2023-03-28T13:00:27.326Z,100466.41
2023-03-28T13:03:26.909Z,100469.44
2023-03-28T13:06:02.792Z,100470.31
2023-03-28T13:09:13.048Z,100469.94
2023-03-28T13:12:06.544Z,100471.06
2023-03-28T13:14:41.470Z,100455.72
2023-03-28T13:17:17.010Z,100462.00
2023-03-28T13:19:43.327Z,100470.22
2023-03-28T13:22:26.970Z,100454.09
2023-03-28T13:24:54.973Z,100447.16
2023-03-28T13:27:32.880Z,100439.84
2023-03-28T13:30:04.988Z,100443.53
2023-03-28T13:32:42.129Z,100435.72
2023-03-28T13:35:44.581Z,100424.38
2023-03-28T13:38:29.259Z,100425.28
2023-03-28T13:41:00.524Z,100418.03
2023-03-28T13:43:33.371Z,100422.81
2023-03-28T13:46:06.290Z,100411.09
2023-03-28T13:48:38.287Z,100401.22
2023-03-28T13:51:10.812Z,100396.78
2023-03-28T13:53:46.963Z,100398.41
2023-03-28T13:56:21.610Z,100393.69
2023-03-28T13:58:49.143Z,100394.34
2023-03-28T14:01:26.259Z,100393.00
2023-03-28T14:03:54.537Z,100390.88
2023-03-28T14:06:24.023Z,100389.75
2023-03-28T14:08:54.185Z,100394.00
2023-03-28T14:11:26.126Z,100378.97
2023-03-28T14:14:01.752Z,100388.13
2023-03-28T14:16:28.223Z,100384.19
2023-03-28T14:18:54.661Z,100370.44
2023-03-28T14:21:24.924Z,100377.72
2023-03-28T14:24:00.053Z,100373.63
2023-03-28T14:26:30.675Z,100362.13
2023-03-28T14:29:04.468Z,100363.66
2023-03-28T14:34:32.204Z,100350.88
2023-03-28T14:37:16.599Z,100346.84
2023-03-28T14:39:43.465Z,100345.56
2023-03-28T14:42:15.687Z,100341.78
2023-03-28T14:44:45.008Z,100339.22
2023-03-28T14:47:16.839Z,100327.38
2023-03-28T14:49:44.376Z,100335.84
2023-03-28T14:52:16.082Z,100323.16
2023-03-28T14:54:49.111Z,100323.78
2023-03-28T14:57:18.010Z,100325.06
2023-03-28T14:59:46.962Z,100323.69
2023-03-28T15:02:30.314Z,100302.81
2023-03-28T15:05:01.159Z,100314.25
2023-03-28T15:07:29.240Z,100306.66
2023-03-28T15:10:19.786Z,100295.72
2023-03-28T15:13:06.376Z,100296.88
2023-03-28T15:15:44.076Z,100297.63
2023-03-28T15:18:14.771Z,100283.88
2023-03-28T15:20:45.362Z,100286.44
2023-03-28T15:23:17.068Z,100292.75
2023-03-28T15:25:44.616Z,100283.75
2023-03-28T15:28:16.427Z,100271.72
2023-03-28T15:30:45.434Z,100282.50
2023-03-28T15:33:23.076Z,100273.63
2023-03-28T15:35:49.640Z,100274.44
2023-03-28T15:38:21.823Z,100262.00
2023-03-28T15:41:06.334Z,100259.03
2023-03-28T15:43:39.424Z,100244.25
2023-03-28T15:46:11.853Z,100244.31
2023-03-28T15:48:40.660Z,100241.59
2023-03-28T15:51:15.908Z,100241.69
2023-03-28T15:53:44.836Z,100235.69
2023-03-28T15:56:25.372Z,100237.16
2023-03-28T15:58:52.428Z,100235.38
2023-03-28T16:01:21.680Z,100232.28
2023-03-28T16:03:49.809Z,100223.97
2023-03-28T16:09:12.814Z,100207.56
2023-03-28T16:11:39.402Z,100205.44
2023-03-28T16:14:24.576Z,100200.06
2023-03-28T16:17:09.920Z,100200.47
2023-03-28T16:19:46.473Z,100194.78
2023-03-28T16:22:12.815Z,100190.09
2023-03-28T16:24:39.159Z,100193.38
2023-03-28T16:27:05.494Z,100188.41
2023-03-28T16:29:31.892Z,100187.25
2023-03-28T16:31:58.255Z,100186.06
2023-03-28T16:34:24.800Z,100177.63
2023-03-28T16:36:51.627Z,100168.03
2023-03-28T16:39:17.928Z,100173.94
2023-03-28T16:41:44.218Z,100172.88
2023-03-28T16:44:10.895Z,100169.16
2023-03-28T16:46:37.353Z,100181.47
2023-03-28T16:49:03.764Z,100170.97
2023-03-28T16:51:30.263Z,100177.56
2023-03-28T16:53:56.564Z,100168.47
2023-03-28T16:56:26.626Z,100162.28
2023-03-28T16:58:54.121Z,100157.59
2023-03-28T17:01:20.493Z,100161.03
2023-03-28T17:03:47.357Z,100155.13
2023-03-28T17:06:14.696Z,100150.09
2023-03-28T17:08:41.261Z,100147.28
2023-03-28T17:11:10.963Z,100142.00
2023-03-28T17:13:39.295Z,100137.09
2023-03-28T17:16:07.682Z,100134.84
2023-03-28T17:18:34.185Z,100136.84
2023-03-28T17:21:12.151Z,100129.22
2023-03-28T17:23:40.594Z,100136.19
2023-03-28T17:26:09.116Z,100131.03
2023-03-28T17:28:39.715Z,100131.78
2023-03-28T17:31:11.330Z,100123.56
2023-03-28T17:33:38.364Z,100132.81
2023-03-28T17:36:26.181Z,100123.00
2023-03-28T17:38:55.516Z,100130.66
2023-03-28T17:41:25.445Z,100138.31
2023-03-28T17:43:52.761Z,100140.72
2023-03-28T17:46:19.112Z,100130.66
2023-03-28T17:48:45.548Z,100139.78
2023-03-28T17:51:12.334Z,100141.88
2023-03-28T17:53:40.045Z,100152.13
2023-03-28T17:56:07.235Z,100146.75
2023-03-28T17:58:33.564Z,100154.47
2023-03-28T18:01:00.008Z,100145.47
2023-03-28T18:03:27.619Z,100138.38
2023-03-28T18:06:09.929Z,100152.97
2023-03-28T18:08:36.616Z,100142.41
2023-03-28T18:11:07.208Z,100156.09
2023-03-28T18:13:35.358Z,100145.66
2023-03-28T18:16:04.557Z,100154.97
2023-03-28T18:18:31.685Z,100154.91
2023-03-28T18:20:58.096Z,100145.66
2023-03-28T18:23:25.160Z,100151.66
2023-03-28T18:25:51.973Z,100142.09
2023-03-28T18:28:22.017Z,100128.91
2023-03-28T18:30:48.322Z,100133.25
2023-03-28T18:33:15.760Z,100131.72
2023-03-28T18:35:42.116Z,100132.22
2023-03-28T18:38:08.545Z,100132.19
2023-03-28T18:40:34.859Z,100133.25
2023-03-28T18:43:01.148Z,100123.94
2023-03-28T18:45:27.501Z,100130.72
2023-03-28T18:47:53.966Z,100135.13
2023-03-28T18:50:21.017Z,100138.69
2023-03-28T18:52:47.680Z,100133.63
2023-03-28T18:55:14.705Z,100133.06
2023-03-28T18:57:41.156Z,100142.28
2023-03-28T19:00:17.289Z,100144.16
2023-03-28T19:02:48.234Z,100128.63
2023-03-28T19:05:15.785Z,100112.66
2023-03-28T19:07:45.141Z,100128.09
2023-03-28T19:10:13.174Z,100127.22
2023-03-28T19:12:41.024Z,100124.53
2023-03-28T19:15:08.568Z,100121.41
2023-03-28T19:17:36.677Z,100123.84
2023-03-28T19:20:07.317Z,100119.16
2023-03-28T19:22:35.005Z,100130.44
2023-03-28T19:25:01.376Z,100125.16
2023-03-28T19:27:27.723Z,100128.09
2023-03-28T19:29:54.045Z,100134.00
2023-03-28T19:32:20.463Z,100139.38
2023-03-28T19:34:46.847Z,100132.50
2023-03-28T19:37:13.669Z,100134.31
2023-03-28T19:39:39.969Z,100144.72
2023-03-28T19:42:06.262Z,100152.00
2023-03-28T19:44:33.090Z,100144.56
2023-03-28T19:46:59.743Z,100122.66
2023-03-28T19:49:26.206Z,100129.69
2023-03-28T19:51:53.344Z,100143.44
2023-03-28T19:54:19.879Z,100135.78
2023-03-28T19:56:46.763Z,100142.97
2023-03-28T19:59:13.238Z,100136.47
2023-03-28T20:01:39.694Z,100132.50
2023-03-28T20:04:06.338Z,100146.63
2023-03-28T20:06:32.683Z,100143.81
2023-03-28T20:08:59.044Z,100136.38
2023-03-28T20:11:26.420Z,100146.91
2023-03-28T20:13:52.740Z,100141.16
2023-03-28T20:16:19.143Z,100141.56
2023-03-28T20:18:46.205Z,100134.19
2023-03-28T20:21:13.783Z,100135.53
2023-03-28T20:23:40.966Z,100138.63
2023-03-28T20:26:15.271Z,100145.66
2023-03-28T20:28:41.664Z,100150.66
2023-03-28T20:31:14.055Z,100144.91
2023-03-28T20:33:40.794Z,100146.78
2023-03-28T20:36:07.341Z,100143.47
2023-03-28T20:38:33.843Z,100132.66
2023-03-28T20:41:00.710Z,100131.88
2023-03-28T20:43:29.422Z,100114.09
2023-03-28T20:46:01.369Z,100115.06
2023-03-28T20:48:35.863Z,100108.13
2023-03-28T20:51:15.792Z,100108.72
2023-03-28T20:53:44.073Z,100106.13
2023-03-28T20:56:11.903Z,100108.38
2023-03-28T20:58:38.991Z,100094.56
2023-03-28T21:01:07.109Z,100093.09
2023-03-28T21:03:46.790Z,100085.16
2023-03-28T21:06:25.789Z,100074.31
2023-03-28T21:08:54.803Z,100069.81
2023-03-28T21:11:26.140Z,100072.59
2023-03-28T21:13:53.070Z,100078.09
2023-03-28T21:16:20.872Z,100076.22
2023-03-28T21:18:47.872Z,100069.69
2023-03-28T21:21:16.257Z,100055.72
2023-03-28T21:23:44.583Z,100069.53
2023-03-28T21:26:14.333Z,100077.69
2023-03-28T21:28:41.050Z,100071.00
2023-03-28T21:31:10.838Z,100072.84
2023-03-28T21:33:38.188Z,100076.22
2023-03-28T21:36:08.754Z,100073.50
2023-03-28T21:38:35.353Z,100063.78
2023-03-28T21:41:02.548Z,100071.97
2023-03-28T21:43:29.153Z,100068.63
2023-03-28T21:45:55.807Z,100071.50
2023-03-28T21:48:22.146Z,100074.22
2023-03-28T21:50:58.874Z,100058.06
2023-03-28T21:53:34.285Z,100046.19
2023-03-28T21:56:01.064Z,100053.50
2023-03-28T21:58:30.699Z,100048.09
2023-03-28T22:00:57.340Z,100044.13
2023-03-28T22:03:23.994Z,100036.56
2023-03-28T22:05:53.022Z,100029.75
2023-03-28T22:08:20.494Z,100030.84
2023-03-28T22:10:51.272Z,100027.56
2023-03-28T22:13:18.178Z,100038.38
2023-03-28T22:15:44.806Z,100023.50
2023-03-28T22:18:11.826Z,100012.88
2023-03-28T22:20:39.783Z,100003.50
2023-03-28T22:23:07.362Z,100018.19
2023-03-28T22:25:38.031Z,100024.53
2023-03-28T22:28:09.134Z,100022.50
2023-03-28T22:30:37.398Z,100022.16
2023-03-28T22:33:05.899Z,100034.81
2023-03-28T22:35:33.394Z,100027.88
2023-03-28T22:38:00.635Z,100019.47
2023-03-28T22:40:27.389Z,100017.03
2023-03-28T22:42:54.049Z,100025.94
2023-03-28T22:45:26.286Z,100019.38
2023-03-28T22:47:53.473Z,100020.84
2023-03-28T22:50:19.826Z,100017.69
2023-03-28T22:52:49.914Z,99993.22
2023-03-28T22:55:17.540Z,100009.69
2023-03-28T22:57:44.794Z,100000.78
2023-03-28T23:00:13.674Z,100005.75
2023-03-28T23:02:41.507Z,100016.56
2023-03-28T23:05:09.303Z,99999.66
2023-03-28T23:07:37.119Z,100002.28
2023-03-28T23:10:08.234Z,99989.22
2023-03-28T23:12:34.852Z,99989.59
2023-03-28T23:15:01.238Z,99983.63
2023-03-28T23:17:28.281Z,99986.53
2023-03-28T23:19:54.922Z,99980.41
2023-03-28T23:22:22.254Z,99974.88
2023-03-28T23:24:51.504Z,99966.88
2023-03-28T23:27:19.416Z,99956.38
2023-03-28T23:29:46.057Z,99951.13
2023-03-28T23:32:12.437Z,99946.19
2023-03-28T23:34:38.860Z,99947.72
2023-03-28T23:37:05.258Z,99948.31
2023-03-28T23:39:32.285Z,99940.09
2023-03-28T23:41:58.589Z,99941.00
2023-03-28T23:44:25.244Z,99931.38
2023-03-28T23:46:51.711Z,99940.94
2023-03-28T23:49:21.225Z,99935.47
2023-03-28T23:51:47.540Z,99922.50
2023-03-28T23:54:15.461Z,99925.88
2023-03-28T23:56:41.798Z,99919.56
2023-03-28T23:59:08.108Z,99919.38
